Main page
METAR-TAF:

METAR-TAF

Airports :

Harbin Taiping International Airport

Harbin, China

latitude: 45-45N, longitude: 126-46E, elevation: 143 m

Current weather observation

The report was made 45 minutes ago, at 18:00 UTC
Wind 2 kt from the South
Temperature -3°C
Humidity 86%
Pressure 1023 hPa
Visibility: 8000 m

METAR: ZYHB 211800Z 18001MPS 8000 NSC M03/M05 Q1023 NOSIG

Time: 02:45 (18:45 UTC)

Forecast

The report was made 3 hours and 36 minutes ago, at 15:09 UTC
Forecast valid from 21 at 18 UTC to 22 at 18 UTC
Wind 6 kt from the West/Northwest
Visibility: 6000 m
Few clouds at a height of 3000 ft

TAF: ZYHB 211509Z 2118/2218 29003MPS 6000 FEW030 TX12/2206Z TNM03/2122Z

Weather observations and forecasts of more than 4000 airports (METAR and TAF reports).

The available stations are represented by yellow and red dots on the map.

Hover mouse over dot to see the name of the station.

Then click to see weather observations and forecasts.

To change the map : click on the green buttons with a black cross to zoom in, on the green button with a dash to zoom out, or on the green arrows for adjacent maps.


METAR-TAF: